sensor_id;sensor_type;location;lat;lon;timestamp;pressure;altitude;pressure_sealevel;temperature;humidity
51359;BME280;37448;51.588;7.248;2022-12-01T00:01:22;102011.72;;;4.87;92.26
51359;BME280;37448;51.588;7.248;2022-12-01T00:03:22;102009.97;;;4.86;92.50
51359;BME280;37448;51.588;7.248;2022-12-01T00:05:23;102016.00;;;4.86;92.25
51359;BME280;37448;51.588;7.248;2022-12-01T00:07:23;102007.38;;;4.86;91.72
51359;BME280;37448;51.588;7.248;2022-12-01T00:09:23;102007.38;;;4.86;91.67
51359;BME280;37448;51.588;7.248;2022-12-01T00:11:42;102008.16;;;4.83;91.65
51359;BME280;37448;51.588;7.248;2022-12-01T00:13:43;102006.41;;;4.82;91.77
51359;BME280;37448;51.588;7.248;2022-12-01T00:15:44;102001.25;;;4.82;91.72
51359;BME280;37448;51.588;7.248;2022-12-01T00:17:44;102003.75;;;4.79;92.19
51359;BME280;37448;51.588;7.248;2022-12-01T00:19:46;102000.19;;;4.74;92.24
51359;BME280;37448;51.588;7.248;2022-12-01T00:21:47;101999.41;;;4.78;91.93
51359;BME280;37448;51.588;7.248;2022-12-01T00:23:49;101995.09;;;4.79;92.25
51359;BME280;37448;51.588;7.248;2022-12-01T00:25:50;101995.03;;;4.76;92.69
51359;BME280;37448;51.588;7.248;2022-12-01T00:27:51;101996.81;;;4.78;92.22
51359;BME280;37448;51.588;7.248;2022-12-01T00:29:52;101997.75;;;4.80;92.30
51359;BME280;37448;51.588;7.248;2022-12-01T00:31:52;101995.09;;;4.79;92.47
51359;BME280;37448;51.588;7.248;2022-12-01T00:33:52;101993.41;;;4.79;92.05
51359;BME280;37448;51.588;7.248;2022-12-01T00:35:58;101992.50;;;4.77;92.35
51359;BME280;37448;51.588;7.248;2022-12-01T00:37:58;101997.66;;;4.77;92.02
51359;BME280;37448;51.588;7.248;2022-12-01T00:39:59;102000.91;;;4.70;92.67
51359;BME280;37448;51.588;7.248;2022-12-01T00:41:59;101999.22;;;4.70;92.49
51359;BME280;37448;51.588;7.248;2022-12-01T00:43:59;101988.81;;;4.67;92.47
51359;BME280;37448;51.588;7.248;2022-12-01T00:46:00;102007.00;;;4.70;91.92
51359;BME280;37448;51.588;7.248;2022-12-01T00:48:00;101995.00;;;4.74;92.36
51359;BME280;37448;51.588;7.248;2022-12-01T00:50:01;101995.75;;;4.70;91.98
51359;BME280;37448;51.588;7.248;2022-12-01T00:52:02;102007.88;;;4.71;92.08
51359;BME280;37448;51.588;7.248;2022-12-01T00:54:02;102009.56;;;4.70;92.83
51359;BME280;37448;51.588;7.248;2022-12-01T00:56:03;102008.66;;;4.68;92.36
51359;BME280;37448;51.588;7.248;2022-12-01T00:58:03;102006.09;;;4.70;92.74
51359;BME280;37448;51.588;7.248;2022-12-01T01:00:04;102016.44;;;4.70;92.22
51359;BME280;37448;51.588;7.248;2022-12-01T01:02:06;102011.97;;;4.63;92.98
51359;BME280;37448;51.588;7.248;2022-12-01T01:04:06;102003.28;;;4.60;92.77
51359;BME280;37448;51.588;7.248;2022-12-01T01:06:09;102008.59;;;4.65;92.63
51359;BME280;37448;51.588;7.248;2022-12-01T01:08:12;102010.19;;;4.60;92.43
51359;BME280;37448;51.588;7.248;2022-12-01T01:10:14;102007.78;;;4.68;92.08
51359;BME280;37448;51.588;7.248;2022-12-01T01:12:14;102003.38;;;4.64;92.64
51359;BME280;37448;51.588;7.248;2022-12-01T01:14:14;102016.44;;;4.70;91.96
51359;BME280;37448;51.588;7.248;2022-12-01T01:16:20;102015.44;;;4.63;92.68
51359;BME280;37448;51.588;7.248;2022-12-01T01:18:21;102014.59;;;4.64;92.71
51359;BME280;37448;51.588;7.248;2022-12-01T01:20:21;102021.47;;;4.62;92.02
51359;BME280;37448;51.588;7.248;2022-12-01T01:22:21;102012.88;;;4.65;92.62
51359;BME280;37448;51.588;7.248;2022-12-01T01:24:22;102012.88;;;4.65;92.83
51359;BME280;37448;51.588;7.248;2022-12-01T01:26:24;102017.28;;;4.67;92.39
51359;BME280;37448;51.588;7.248;2022-12-01T01:28:25;102019.88;;;4.69;92.43
51359;BME280;37448;51.588;7.248;2022-12-01T01:30:25;102025.88;;;4.68;92.19
51359;BME280;37448;51.588;7.248;2022-12-01T01:32:26;102023.28;;;4.66;91.81
51359;BME280;37448;51.588;7.248;2022-12-01T01:34:26;102017.97;;;4.62;92.01
51359;BME280;37448;51.588;7.248;2022-12-01T01:36:26;102024.75;;;4.56;92.57
51359;BME280;37448;51.588;7.248;2022-12-01T01:38:27;102033.56;;;4.65;92.23
51359;BME280;37448;51.588;7.248;2022-12-01T01:40:28;102023.22;;;4.63;92.65
51359;BME280;37448;51.588;7.248;2022-12-01T01:42:28;102024.84;;;4.59;91.47
51359;BME280;37448;51.588;7.248;2022-12-01T01:44:50;102037.06;;;4.65;91.36
51359;BME280;37448;51.588;7.248;2022-12-01T01:46:50;102030.91;;;4.60;91.56
51359;BME280;37448;51.588;7.248;2022-12-01T01:49:10;102039.59;;;4.64;91.98
51359;BME280;37448;51.588;7.248;2022-12-01T01:51:14;102040.44;;;4.63;91.42
51359;BME280;37448;51.588;7.248;2022-12-01T01:53:16;102039.59;;;4.64;91.80
51359;BME280;37448;51.588;7.248;2022-12-01T01:55:17;102040.50;;;4.66;91.35
51359;BME280;37448;51.588;7.248;2022-12-01T01:57:22;102040.44;;;4.63;91.09
51359;BME280;37448;51.588;7.248;2022-12-01T01:59:29;102043.94;;;4.65;91.16
51359;BME280;37448;51.588;7.248;2022-12-01T02:01:30;102038.69;;;4.62;91.56
51359;BME280;37448;51.588;7.248;2022-12-01T02:03:31;102038.59;;;4.58;92.03
51359;BME280;37448;51.588;7.248;2022-12-01T02:05:33;102039.66;;;4.65;92.03
51359;BME280;37448;51.588;7.248;2022-12-01T02:07:34;102042.88;;;4.56;91.05
51359;BME280;37448;51.588;7.248;2022-12-01T02:09:35;102036.16;;;4.63;92.23
51359;BME280;37448;51.588;7.248;2022-12-01T02:14:16;102034.47;;;4.65;91.89
51359;BME280;37448;51.588;7.248;2022-12-01T02:16:52;102040.56;;;4.69;91.22
51359;BME280;37448;51.588;7.248;2022-12-01T02:19:31;102037.06;;;4.67;91.82
51359;BME280;37448;51.588;7.248;2022-12-01T02:21:59;102036.25;;;4.68;91.48
51359;BME280;37448;51.588;7.248;2022-12-01T02:31:21;102039.50;;;4.59;91.02
51359;BME280;37448;51.588;7.248;2022-12-01T02:33:38;102030.00;;;4.59;91.13
51359;BME280;37448;51.588;7.248;2022-12-01T02:40:21;102036.03;;;4.58;90.96
51359;BME280;37448;51.588;7.248;2022-12-01T02:42:32;102021.25;;;4.54;90.91
51359;BME280;37448;51.588;7.248;2022-12-01T02:44:53;102024.13;;;4.67;90.65
51359;BME280;37448;51.588;7.248;2022-12-01T02:46:58;102014.47;;;4.59;91.33
51359;BME280;37448;51.588;7.248;2022-12-01T02:49:05;102023.22;;;4.65;90.54
51359;BME280;37448;51.588;7.248;2022-12-01T02:51:13;102025.81;;;4.65;90.58
51359;BME280;37448;51.588;7.248;2022-12-01T02:53:17;102028.22;;;4.57;90.31
51359;BME280;37448;51.588;7.248;2022-12-01T02:55:18;102023.97;;;4.59;91.01
51359;BME280;37448;51.588;7.248;2022-12-01T02:57:22;102033.50;;;4.62;90.69
51359;BME280;37448;51.588;7.248;2022-12-01T02:59:23;102031.69;;;4.57;90.89
51359;BME280;37448;51.588;7.248;2022-12-01T03:03:46;102023.88;;;4.56;90.77
51359;BME280;37448;51.588;7.248;2022-12-01T03:05:54;102027.38;;;4.58;90.85
51359;BME280;37448;51.588;7.248;2022-12-01T03:10:16;102024.84;;;4.59;90.49
51359;BME280;37448;51.588;7.248;2022-12-01T03:14:44;102030.00;;;4.59;91.08
51359;BME280;37448;51.588;7.248;2022-12-01T03:16:50;102035.06;;;4.55;90.54
51359;BME280;37448;51.588;7.248;2022-12-01T03:19:06;102031.75;;;4.60;90.72
51359;BME280;37448;51.588;7.248;2022-12-01T03:23:20;102025.75;;;4.62;90.39
51359;BME280;37448;51.588;7.248;2022-12-01T03:25:23;102021.34;;;4.57;90.46
51359;BME280;37448;51.588;7.248;2022-12-01T03:27:30;102024.00;;;4.60;90.25
51359;BME280;37448;51.588;7.248;2022-12-01T03:29:36;102030.91;;;4.62;90.34
51359;BME280;37448;51.588;7.248;2022-12-01T03:31:53;102027.50;;;4.63;90.32
51359;BME280;37448;51.588;7.248;2022-12-01T03:33:59;102026.72;;;4.67;89.72
51359;BME280;37448;51.588;7.248;2022-12-01T03:36:05;102022.03;;;4.52;90.00
51359;BME280;37448;51.588;7.248;2022-12-01T03:38:18;102029.03;;;4.56;90.07
51359;BME280;37448;51.588;7.248;2022-12-01T03:40:21;102028.34;;;4.62;89.68
51359;BME280;37448;51.588;7.248;2022-12-01T03:42:30;102027.47;;;4.61;90.11
51359;BME280;37448;51.588;7.248;2022-12-01T03:44:42;102036.94;;;4.60;90.17
51359;BME280;37448;51.588;7.248;2022-12-01T03:46:52;102033.56;;;4.63;90.12
51359;BME280;37448;51.588;7.248;2022-12-01T03:48:54;102030.16;;;4.66;90.31
51359;BME280;37448;51.588;7.248;2022-12-01T03:53:46;102032.53;;;4.58;90.20
51359;BME280;37448;51.588;7.248;2022-12-01T03:55:57;102039.38;;;4.54;89.87
51359;BME280;37448;51.588;7.248;2022-12-01T03:58:05;102040.28;;;4.56;90.48
51359;BME280;37448;51.588;7.248;2022-12-01T04:00:08;102036.84;;;4.57;89.69
51359;BME280;37448;51.588;7.248;2022-12-01T04:02:13;102040.34;;;4.59;90.74
51359;BME280;37448;51.588;7.248;2022-12-01T04:04:14;102020.34;;;4.52;90.48
51359;BME280;37448;51.588;7.248;2022-12-01T04:06:14;102037.78;;;4.59;90.29
51359;BME280;37448;51.588;7.248;2022-12-01T04:08:14;102039.53;;;4.60;90.28
51359;BME280;37448;51.588;7.248;2022-12-01T04:10:15;102043.72;;;4.55;89.18
51359;BME280;37448;51.588;7.248;2022-12-01T04:12:18;102043.78;;;4.58;89.79
51359;BME280;37448;51.588;7.248;2022-12-01T04:14:32;102040.28;;;4.56;89.58
51359;BME280;37448;51.588;7.248;2022-12-01T04:16:32;102034.19;;;4.54;90.14
51359;BME280;37448;51.588;7.248;2022-12-01T04:18:32;102034.28;;;4.57;89.42
51359;BME280;37448;51.588;7.248;2022-12-01T04:20:33;102034.31;;;4.59;89.19
51359;BME280;37448;51.588;7.248;2022-12-01T04:22:33;102030.84;;;4.58;89.63
51359;BME280;37448;51.588;7.248;2022-12-01T04:24:33;102036.84;;;4.57;89.26
51359;BME280;37448;51.588;7.248;2022-12-01T04:26:35;102043.72;;;4.55;88.98
51359;BME280;37448;51.588;7.248;2022-12-01T04:28:36;102037.72;;;4.58;89.22
51359;BME280;37448;51.588;7.248;2022-12-01T04:30:36;102035.97;;;4.57;89.07
51359;BME280;37448;51.588;7.248;2022-12-01T04:32:38;102028.09;;;4.52;89.03
51359;BME280;37448;51.588;7.248;2022-12-01T04:34:39;102039.38;;;4.56;89.79
51359;BME280;37448;51.588;7.248;2022-12-01T04:36:39;102035.94;;;4.55;89.47
51359;BME280;37448;51.588;7.248;2022-12-01T04:38:39;102028.19;;;4.55;88.91
51359;BME280;37448;51.588;7.248;2022-12-01T04:40:40;102025.53;;;4.54;89.30
51359;BME280;37448;51.588;7.248;2022-12-01T04:42:40;102026.59;;;4.60;89.09
51359;BME280;37448;51.588;7.248;2022-12-01T04:44:40;102031.69;;;4.57;89.15
51359;BME280;37448;51.588;7.248;2022-12-01T04:46:41;102032.53;;;4.58;88.02
51359;BME280;37448;51.588;7.248;2022-12-01T04:48:41;102031.59;;;4.54;88.47
51359;BME280;37448;51.588;7.248;2022-12-01T04:50:42;102022.94;;;4.52;89.29
51359;BME280;37448;51.588;7.248;2022-12-01T04:52:43;102015.09;;;4.49;89.09
51359;BME280;37448;51.588;7.248;2022-12-01T04:54:43;102021.19;;;4.51;89.57
51359;BME280;37448;51.588;7.248;2022-12-01T04:56:43;102029.84;;;4.53;89.07
51359;BME280;37448;51.588;7.248;2022-12-01T04:58:44;102029.78;;;4.50;88.87
51359;BME280;37448;51.588;7.248;2022-12-01T05:00:44;102023.78;;;4.51;88.75
51359;BME280;37448;51.588;7.248;2022-12-01T05:02:45;102031.47;;;4.48;89.49
51359;BME280;37448;51.588;7.248;2022-12-01T05:04:45;102034.19;;;4.54;89.44
51359;BME280;37448;51.588;7.248;2022-12-01T05:06:47;102032.47;;;4.55;89.45
51359;BME280;37448;51.588;7.248;2022-12-01T05:08:48;102032.44;;;4.53;89.28
51359;BME280;37448;51.588;7.248;2022-12-01T05:10:54;102029.94;;;4.56;89.85
51359;BME280;37448;51.588;7.248;2022-12-01T05:12:54;102035.78;;;4.49;89.61
51359;BME280;37448;51.588;7.248;2022-12-01T05:14:57;102025.53;;;4.54;89.62
51359;BME280;37448;51.588;7.248;2022-12-01T05:16:57;102028.03;;;4.49;89.26
51359;BME280;37448;51.588;7.248;2022-12-01T05:19:01;102028.03;;;4.49;89.23
51359;BME280;37448;51.588;7.248;2022-12-01T05:21:20;102034.97;;;4.50;89.38
51359;BME280;37448;51.588;7.248;2022-12-01T05:23:22;102036.78;;;4.54;89.81
51359;BME280;37448;51.588;7.248;2022-12-01T05:25:22;102038.53;;;4.55;89.67
51359;BME280;37448;51.588;7.248;2022-12-01T05:27:23;102030.63;;;4.51;89.36
51359;BME280;37448;51.588;7.248;2022-12-01T05:29:23;102043.63;;;4.52;89.19
51359;BME280;37448;51.588;7.248;2022-12-01T05:31:23;102040.13;;;4.50;89.13
51359;BME280;37448;51.588;7.248;2022-12-01T05:33:25;102040.13;;;4.50;89.17
51359;BME280;37448;51.588;7.248;2022-12-01T05:35:26;102038.28;;;4.46;89.07
51359;BME280;37448;51.588;7.248;2022-12-01T05:37:26;102043.56;;;4.49;89.40
51359;BME280;37448;51.588;7.248;2022-12-01T05:39:32;102029.59;;;4.44;89.65
51359;BME280;37448;51.588;7.248;2022-12-01T05:41:32;102035.53;;;4.40;89.27
51359;BME280;37448;51.588;7.248;2022-12-01T05:43:32;102039.94;;;4.44;90.26
51359;BME280;37448;51.588;7.248;2022-12-01T05:45:33;102037.47;;;4.47;89.49
51359;BME280;37448;51.588;7.248;2022-12-01T05:47:34;102038.28;;;4.46;90.19
51359;BME280;37448;51.588;7.248;2022-12-01T05:49:34;102043.44;;;4.46;89.58
51359;BME280;37448;51.588;7.248;2022-12-01T05:51:35;102039.94;;;4.44;90.27
51359;BME280;37448;51.588;7.248;2022-12-01T05:53:35;102031.47;;;4.48;89.82
51359;BME280;37448;51.588;7.248;2022-12-01T05:55:35;102034.69;;;4.41;90.05
51359;BME280;37448;51.588;7.248;2022-12-01T05:57:36;102047.72;;;4.44;89.41
51359;BME280;37448;51.588;7.248;2022-12-01T05:59:36;102045.13;;;4.44;90.08
51359;BME280;37448;51.588;7.248;2022-12-01T06:01:37;102051.13;;;4.43;90.14
51359;BME280;37448;51.588;7.248;2022-12-01T06:03:37;102049.47;;;4.45;89.80
51359;BME280;37448;51.588;7.248;2022-12-01T06:05:38;102051.03;;;4.38;90.69
51359;BME280;37448;51.588;7.248;2022-12-01T06:07:38;102057.16;;;4.42;90.56
51359;BME280;37448;51.588;7.248;2022-12-01T06:09:39;102041.53;;;4.37;90.47
51359;BME280;37448;51.588;7.248;2022-12-01T06:11:39;102046.00;;;4.44;90.06
51359;BME280;37448;51.588;7.248;2022-12-01T06:13:40;102053.72;;;4.43;90.47
51359;BME280;37448;51.588;7.248;2022-12-01T06:15:40;102053.63;;;4.40;90.28
51359;BME280;37448;51.588;7.248;2022-12-01T06:17:40;102057.06;;;4.39;90.93
51359;BME280;37448;51.588;7.248;2022-12-01T06:19:41;102058.81;;;4.40;90.84
51359;BME280;37448;51.588;7.248;2022-12-01T06:21:42;102061.38;;;4.38;90.05
51359;BME280;37448;51.588;7.248;2022-12-01T06:23:43;102060.47;;;4.38;90.42
51359;BME280;37448;51.588;7.248;2022-12-01T06:25:43;102058.72;;;4.37;90.63
51359;BME280;37448;51.588;7.248;2022-12-01T06:27:43;102059.56;;;4.34;90.92
51359;BME280;37448;51.588;7.248;2022-12-01T06:29:44;102060.25;;;4.28;90.37
51359;BME280;37448;51.588;7.248;2022-12-01T06:31:44;102055.84;;;4.26;91.28
51359;BME280;37448;51.588;7.248;2022-12-01T06:33:45;102068.94;;;4.32;90.17
51359;BME280;37448;51.588;7.248;2022-12-01T06:35:45;102069.91;;;4.36;90.87
51359;BME280;37448;51.588;7.248;2022-12-01T06:37:45;102061.91;;;4.26;90.55
51359;BME280;37448;51.588;7.248;2022-12-01T06:39:46;102063.84;;;4.34;90.03
51359;BME280;37448;51.588;7.248;2022-12-01T06:41:46;102064.53;;;4.28;90.26
51359;BME280;37448;51.588;7.248;2022-12-01T06:43:47;102058.50;;;4.27;90.40
51359;BME280;37448;51.588;7.248;2022-12-01T06:45:47;102074.13;;;4.32;90.27
51359;BME280;37448;51.588;7.248;2022-12-01T06:47:52;102058.50;;;4.27;90.13
51359;BME280;37448;51.588;7.248;2022-12-01T06:49:52;102069.97;;;4.37;90.63
51359;BME280;37448;51.588;7.248;2022-12-01T06:51:53;102069.75;;;4.29;90.03
51359;BME280;37448;51.588;7.248;2022-12-01T06:53:54;102070.75;;;4.35;90.54
51359;BME280;37448;51.588;7.248;2022-12-01T06:56:04;102068.22;;;4.36;89.67
51359;BME280;37448;51.588;7.248;2022-12-01T06:58:05;102077.59;;;4.33;90.06
51359;BME280;37448;51.588;7.248;2022-12-01T07:00:05;102080.31;;;4.37;90.19
51359;BME280;37448;51.588;7.248;2022-12-01T07:02:09;102069.84;;;4.33;90.06
51359;BME280;37448;51.588;7.248;2022-12-01T07:04:10;102072.34;;;4.29;89.62
51359;BME280;37448;51.588;7.248;2022-12-01T07:06:10;102070.75;;;4.35;89.47
51359;BME280;37448;51.588;7.248;2022-12-01T07:08:10;102075.84;;;4.31;89.28
51359;BME280;37448;51.588;7.248;2022-12-01T07:10:11;102081.03;;;4.31;89.66
51359;BME280;37448;51.588;7.248;2022-12-01T07:12:12;102068.91;;;4.30;89.87
51359;BME280;37448;51.588;7.248;2022-12-01T07:14:22;102071.44;;;4.29;89.99
51359;BME280;37448;51.588;7.248;2022-12-01T07:16:23;102067.25;;;4.33;90.10
51359;BME280;37448;51.588;7.248;2022-12-01T07:18:24;102075.84;;;4.31;90.26
51359;BME280;37448;51.588;7.248;2022-12-01T07:20:24;102079.00;;;4.21;89.59
51359;BME280;37448;51.588;7.248;2022-12-01T07:22:25;102084.38;;;4.27;89.74
51359;BME280;37448;51.588;7.248;2022-12-01T07:24:25;102093.72;;;4.22;89.83
51359;BME280;37448;51.588;7.248;2022-12-01T07:26:25;102091.28;;;4.28;90.13
51359;BME280;37448;51.588;7.248;2022-12-01T07:28:26;102095.56;;;4.28;89.78
51359;BME280;37448;51.588;7.248;2022-12-01T07:30:27;102101.63;;;4.28;90.02
51359;BME280;37448;51.588;7.248;2022-12-01T07:32:28;102097.38;;;4.30;90.06
51359;BME280;37448;51.588;7.248;2022-12-01T07:34:28;102089.53;;;4.27;90.28
51359;BME280;37448;51.588;7.248;2022-12-01T07:36:28;102084.97;;;4.19;90.51
51359;BME280;37448;51.588;7.248;2022-12-01T07:38:30;102091.13;;;4.22;90.67
51359;BME280;37448;51.588;7.248;2022-12-01T07:40:31;102093.72;;;4.24;90.80
51359;BME280;37448;51.588;7.248;2022-12-01T07:42:31;102098.03;;;4.23;90.97
51359;BME280;37448;51.588;7.248;2022-12-01T07:44:32;102089.34;;;4.21;90.76
51359;BME280;37448;51.588;7.248;2022-12-01T07:46:32;102090.31;;;4.25;90.47
51359;BME280;37448;51.588;7.248;2022-12-01T07:48:34;102091.81;;;4.16;90.68
51359;BME280;37448;51.588;7.248;2022-12-01T07:50:34;102085.84;;;4.19;90.82
51359;BME280;37448;51.588;7.248;2022-12-01T07:52:35;102084.91;;;4.17;90.66
51359;BME280;37448;51.588;7.248;2022-12-01T07:54:35;102096.38;;;4.25;90.69
51359;BME280;37448;51.588;7.248;2022-12-01T07:56:36;102078.91;;;4.18;91.03
51359;BME280;37448;51.588;7.248;2022-12-01T07:58:36;102098.03;;;4.23;91.09
51359;BME280;37448;51.588;7.248;2022-12-01T08:00:37;102092.88;;;4.23;91.21
51359;BME280;37448;51.588;7.248;2022-12-01T08:02:37;102093.72;;;4.22;91.26
51359;BME280;37448;51.588;7.248;2022-12-01T08:04:37;102101.56;;;4.25;90.70
51359;BME280;37448;51.588;7.248;2022-12-01T08:06:38;102097.22;;;4.26;91.02
51359;BME280;37448;51.588;7.248;2022-12-01T08:08:39;102102.31;;;4.23;91.20
51359;BME280;37448;51.588;7.248;2022-12-01T08:10:40;102108.38;;;4.23;91.32
51359;BME280;37448;51.588;7.248;2022-12-01T08:12:40;102108.28;;;4.20;91.25
51359;BME280;37448;51.588;7.248;2022-12-01T08:14:41;102110.16;;;4.24;90.74
51359;BME280;37448;51.588;7.248;2022-12-01T08:16:41;102111.00;;;4.25;91.53
51359;BME280;37448;51.588;7.248;2022-12-01T08:18:42;102099.69;;;4.21;91.21
51359;BME280;37448;51.588;7.248;2022-12-01T08:20:42;102108.28;;;4.20;90.53
51359;BME280;37448;51.588;7.248;2022-12-01T08:22:43;102116.16;;;4.23;91.22
51359;BME280;37448;51.588;7.248;2022-12-01T08:24:43;102115.03;;;4.15;91.41
51359;BME280;37448;51.588;7.248;2022-12-01T08:26:44;102122.09;;;4.21;91.80
51359;BME280;37448;51.588;7.248;2022-12-01T08:28:44;102115.09;;;4.16;91.35
51359;BME280;37448;51.588;7.248;2022-12-01T08:30:45;102124.75;;;4.22;91.47
51359;BME280;37448;51.588;7.248;2022-12-01T08:32:46;102128.25;;;4.24;91.35
51359;BME280;37448;51.588;7.248;2022-12-01T08:34:46;102126.28;;;4.15;91.80
51359;BME280;37448;51.588;7.248;2022-12-01T08:36:47;102125.59;;;4.23;91.06
51359;BME280;37448;51.588;7.248;2022-12-01T08:38:49;102134.25;;;4.23;91.20
51359;BME280;37448;51.588;7.248;2022-12-01T08:40:50;102128.03;;;4.16;91.77
51359;BME280;37448;51.588;7.248;2022-12-01T08:42:51;102128.97;;;4.20;91.44
51359;BME280;37448;51.588;7.248;2022-12-01T08:44:51;102132.44;;;4.21;91.27
51359;BME280;37448;51.588;7.248;2022-12-01T08:46:52;102117.63;;;4.15;91.54
51359;BME280;37448;51.588;7.248;2022-12-01T08:48:54;102123.75;;;4.19;91.06
51359;BME280;37448;51.588;7.248;2022-12-01T08:51:02;102123.59;;;4.12;91.28
51359;BME280;37448;51.588;7.248;2022-12-01T08:53:03;102126.38;;;4.20;91.65
51359;BME280;37448;51.588;7.248;2022-12-01T08:55:04;102124.63;;;4.19;91.28
51359;BME280;37448;51.588;7.248;2022-12-01T08:57:05;102127.41;;;4.25;91.27
51359;BME280;37448;51.588;7.248;2022-12-01T08:59:06;102130.03;;;4.27;91.17
51359;BME280;37448;51.588;7.248;2022-12-01T09:01:09;102125.53;;;4.21;91.13
51359;BME280;37448;51.588;7.248;2022-12-01T09:03:10;102126.50;;;4.23;91.00
51359;BME280;37448;51.588;7.248;2022-12-01T09:05:10;102117.31;;;4.04;90.96
51359;BME280;37448;51.588;7.248;2022-12-01T09:07:11;102124.50;;;4.14;91.25
51359;BME280;37448;51.588;7.248;2022-12-01T09:09:23;102132.38;;;4.19;90.97
51359;BME280;37448;51.588;7.248;2022-12-01T09:11:24;102128.94;;;4.19;90.81
51359;BME280;37448;51.588;7.248;2022-12-01T09:13:25;102121.69;;;4.07;89.91
51359;BME280;37448;51.588;7.248;2022-12-01T09:15:27;102142.56;;;4.13;90.50
51359;BME280;37448;51.588;7.248;2022-12-01T09:17:27;102118.19;;;4.05;90.78
51359;BME280;37448;51.588;7.248;2022-12-01T09:19:28;102126.28;;;4.15;90.65
51359;BME280;37448;51.588;7.248;2022-12-01T09:21:29;102134.66;;;4.08;91.32
51359;BME280;37448;51.588;7.248;2022-12-01T09:23:30;102134.84;;;4.14;90.39
51359;BME280;37448;51.588;7.248;2022-12-01T09:25:32;102139.31;;;4.20;90.53
51359;BME280;37448;51.588;7.248;2022-12-01T09:27:32;102137.47;;;4.16;90.29
51359;BME280;37448;51.588;7.248;2022-12-01T09:29:33;102139.06;;;4.11;90.51
51359;BME280;37448;51.588;7.248;2022-12-01T09:31:34;102147.72;;;4.13;90.15
51359;BME280;37448;51.588;7.248;2022-12-01T09:33:35;102136.56;;;4.14;90.76
51359;BME280;37448;51.588;7.248;2022-12-01T09:35:36;102149.53;;;4.15;90.67
51359;BME280;37448;51.588;7.248;2022-12-01T09:37:36;102148.72;;;4.16;90.31
51359;BME280;37448;51.588;7.248;2022-12-01T09:39:37;102149.56;;;4.17;90.03
51359;BME280;37448;51.588;7.248;2022-12-01T09:41:46;102144.41;;;4.17;90.34
51359;BME280;37448;51.588;7.248;2022-12-01T09:46:19;102140.13;;;4.18;90.36
51359;BME280;37448;51.588;7.248;2022-12-01T09:48:25;102137.56;;;4.19;89.68
51359;BME280;37448;51.588;7.248;2022-12-01T09:50:28;102135.88;;;4.21;89.57
51359;BME280;37448;51.588;7.248;2022-12-01T09:52:37;102141.19;;;4.24;90.32
51359;BME280;37448;51.588;7.248;2022-12-01T09:54:39;102138.63;;;4.26;89.99
51359;BME280;37448;51.588;7.248;2022-12-01T09:56:48;102139.53;;;4.28;89.96
51359;BME280;37448;51.588;7.248;2022-12-01T09:58:53;102136.16;;;4.30;89.95
51359;BME280;37448;51.588;7.248;2022-12-01T10:00:56;102135.34;;;4.31;89.58
51359;BME280;37448;51.588;7.248;2022-12-01T10:03:37;102138.69;;;4.29;88.51
51359;BME280;37448;51.588;7.248;2022-12-01T10:05:48;102137.25;;;4.39;88.77
51359;BME280;37448;51.588;7.248;2022-12-01T10:07:56;102140.91;;;4.45;88.36
51359;BME280;37448;51.588;7.248;2022-12-01T10:10:12;102140.22;;;4.53;87.54
51359;BME280;37448;51.588;7.248;2022-12-01T10:12:15;102134.28;;;4.57;88.12
51359;BME280;37448;51.588;7.248;2022-12-01T10:14:18;102130.97;;;4.61;86.64
51359;BME280;37448;51.588;7.248;2022-12-01T10:16:24;102135.34;;;4.64;86.62
51359;BME280;37448;51.588;7.248;2022-12-01T10:18:43;102126.66;;;4.62;85.84
51359;BME280;37448;51.588;7.248;2022-12-01T10:23:16;102120.34;;;4.52;84.12
51359;BME280;37448;51.588;7.248;2022-12-01T10:25:23;102123.94;;;4.57;86.46
51359;BME280;37448;51.588;7.248;2022-12-01T10:30:04;102124.84;;;4.57;85.12
51359;BME280;37448;51.588;7.248;2022-12-01T10:32:18;102122.16;;;4.54;86.38
51359;BME280;37448;51.588;7.248;2022-12-01T10:34:22;102121.34;;;4.55;85.20
51359;BME280;37448;51.588;7.248;2022-12-01T10:36:25;102115.19;;;4.52;85.34
51359;BME280;37448;51.588;7.248;2022-12-01T10:38:29;102121.41;;;4.58;85.00
51359;BME280;37448;51.588;7.248;2022-12-01T10:40:32;102126.66;;;4.62;85.52
51359;BME280;37448;51.588;7.248;2022-12-01T10:42:42;102120.66;;;4.63;85.04
51359;BME280;37448;51.588;7.248;2022-12-01T10:44:42;102113.78;;;4.63;85.62
51359;BME280;37448;51.588;7.248;2022-12-01T10:46:48;102112.88;;;4.63;85.17
51359;BME280;37448;51.588;7.248;2022-12-01T10:48:54;102106.88;;;4.64;84.01
51359;BME280;37448;51.588;7.248;2022-12-01T10:51:13;102104.25;;;4.62;84.21
51359;BME280;37448;51.588;7.248;2022-12-01T10:53:30;102105.97;;;4.62;83.71
51359;BME280;37448;51.588;7.248;2022-12-01T10:55:36;102097.13;;;4.53;83.49
51359;BME280;37448;51.588;7.248;2022-12-01T10:57:37;102103.16;;;4.54;84.31
51359;BME280;37448;51.588;7.248;2022-12-01T10:59:50;102103.78;;;4.45;84.03
51359;BME280;37448;51.588;7.248;2022-12-01T11:01:52;102104.81;;;4.50;84.61
51359;BME280;37448;51.588;7.248;2022-12-01T11:03:56;102101.41;;;4.53;84.13
51359;BME280;37448;51.588;7.248;2022-12-01T11:06:03;102107.47;;;4.53;84.39
51359;BME280;37448;51.588;7.248;2022-12-01T11:08:04;102103.97;;;4.51;84.96
51359;BME280;37448;51.588;7.248;2022-12-01T11:12:24;102105.88;;;4.58;84.14
51359;BME280;37448;51.588;7.248;2022-12-01T11:14:43;102108.53;;;4.60;84.32
51359;BME280;37448;51.588;7.248;2022-12-01T11:16:47;102102.47;;;4.59;84.21
51359;BME280;37448;51.588;7.248;2022-12-01T11:18:49;102112.88;;;4.63;83.95
51359;BME280;37448;51.588;7.248;2022-12-01T11:21:25;102106.03;;;4.65;83.38
51359;BME280;37448;51.588;7.248;2022-12-01T11:23:26;102099.13;;;4.64;83.35
51359;BME280;37448;51.588;7.248;2022-12-01T11:25:28;102106.94;;;4.67;84.10
51359;BME280;37448;51.588;7.248;2022-12-01T11:27:51;102099.94;;;4.63;84.11
51359;BME280;37448;51.588;7.248;2022-12-01T11:30:00;102092.34;;;4.69;83.28